Time;durP1;ratioP1;P1;durP2;ratioP2;P2;SDS_P1;SDS_P2;PMS_P1;PMS_P2;Temp;Humidity;BMP_temperature;BMP_pressure;BME280_temperature;BME280_humidity;BME280_pressure;Samples;Min_cycle;Max_cycle;Signal;HPM_P1;HPM_P2
2022/10/21 00:00:21;;;;;;;1999.90;999.90;;;17.20;99.90;;;;;;5003556;28;20029;-79
2022/10/21 00:02:47;;;;;;;1999.90;999.90;;;17.20;99.90;;;;;;5029482;28;20100;-75
2022/10/21 00:05:12;;;;;;;1999.90;999.90;;;17.10;99.90;;;;;;5004069;28;20017;-78
2022/10/21 00:07:38;;;;;;;1999.90;999.90;;;17.10;99.90;;;;;;5020906;28;20025;-77
2022/10/21 00:10:04;;;;;;;1999.90;999.90;;;17.10;99.90;;;;;;5021161;28;20159;-77
2022/10/21 00:12:31;;;;;;;1999.90;999.90;;;17.10;99.90;;;;;;5021537;28;20075;-78
2022/10/21 00:14:56;;;;;;;1999.90;999.90;;;17.10;99.90;;;;;;5021213;28;20472;-78
2022/10/21 00:17:22;;;;;;;1999.90;999.90;;;17.10;99.90;;;;;;5021404;28;20037;-79
2022/10/21 00:19:47;;;;;;;1999.90;999.90;;;17.10;99.90;;;;;;5021232;28;20449;-78
2022/10/21 00:22:13;;;;;;;1999.90;999.90;;;17.20;99.90;;;;;;5020755;28;20034;-79
2022/10/21 00:24:38;;;;;;;1999.90;999.90;;;17.20;99.90;;;;;;5020542;28;20064;-79
2022/10/21 00:27:04;;;;;;;1999.90;999.90;;;17.20;99.90;;;;;;5021046;28;20104;-74
2022/10/21 00:29:31;;;;;;;1999.90;999.90;;;17.20;99.90;;;;;;5019745;28;20049;-78
2022/10/21 00:31:57;;;;;;;1999.90;999.90;;;17.20;99.90;;;;;;5021245;28;20017;-79
2022/10/21 00:34:22;;;;;;;1999.90;999.90;;;17.20;99.90;;;;;;5026812;28;20447;-79
2022/10/21 00:36:48;;;;;;;1999.90;999.90;;;17.20;99.90;;;;;;5030821;28;20030;-79
2022/10/21 00:39:14;;;;;;;1999.90;999.90;;;17.20;99.90;;;;;;5032418;28;20103;-74
2022/10/21 00:41:40;;;;;;;1999.90;999.90;;;17.20;99.90;;;;;;5032661;28;20040;-74
2022/10/21 00:44:09;;;;;;;1999.90;999.90;;;17.10;99.90;;;;;;5024913;28;20117;-79
2022/10/21 00:46:35;;;;;;;1999.90;999.90;;;17.20;99.90;;;;;;5024614;28;20025;-79
2022/10/21 00:49:05;;;;;;;1999.90;999.90;;;17.10;99.90;;;;;;5028719;28;20034;-79
2022/10/21 00:51:31;;;;;;;1999.90;999.90;;;17.10;99.90;;;;;;5173233;22;20095;-81
2022/10/21 00:53:59;;;;;;;1999.90;999.90;;;17.10;99.90;;;;;;5033829;28;20022;-81
2022/10/21 00:56:27;;;;;;;1999.90;999.90;;;17.20;99.90;;;;;;5033393;28;20025;-81
2022/10/21 00:58:55;;;;;;;1999.90;999.90;;;17.20;99.90;;;;;;5002723;28;20519;-81
2022/10/21 01:01:21;;;;;;;1999.90;999.90;;;17.30;99.90;;;;;;5033475;28;20045;-81
2022/10/21 01:03:48;;;;;;;1999.90;999.90;;;17.30;99.90;;;;;;5033672;28;20040;-81
2022/10/21 01:06:15;;;;;;;1999.90;999.90;;;17.40;99.90;;;;;;5028315;28;20025;-81
2022/10/21 01:08:41;;;;;;;1999.90;999.90;;;17.50;99.90;;;;;;5015616;28;20155;-81
2022/10/21 01:11:13;;;;;;;1999.90;999.90;;;17.50;99.90;;;;;;5038003;28;20112;-81
2022/10/21 01:14:16;;;;;;;1999.90;999.90;;;17.60;99.90;;;;;;5046015;28;20162;-81
2022/10/21 01:16:41;;;;;;;1999.90;999.90;;;17.60;99.90;;;;;;5021525;28;20507;-81
2022/10/21 01:19:25;;;;;;;1999.90;999.90;;;17.70;99.90;;;;;;5043066;28;20025;-81
2022/10/21 01:22:04;;;;;;;1999.90;999.90;;;17.70;99.90;;;;;;5025788;28;20488;-81
2022/10/21 01:24:56;;;;;;;1999.90;999.90;;;17.70;99.90;;;;;;5029926;28;20475;-81
2022/10/21 01:27:33;;;;;;;1999.90;999.90;;;17.70;99.90;;;;;;5035657;28;20061;-81
2022/10/21 01:30:37;;;;;;;1999.90;999.90;;;17.80;99.90;;;;;;5032238;28;20079;-81
2022/10/21 01:33:25;;;;;;;1999.90;999.90;;;17.90;99.90;;;;;;5014922;28;20136;-81
2022/10/21 01:36:00;;;;;;;1999.90;999.90;;;17.90;99.90;;;;;;5023350;28;20025;-81
2022/10/21 01:39:09;;;;;;;1999.90;999.90;;;18.10;99.90;;;;;;5041307;28;20108;-81
2022/10/21 01:41:43;;;;;;;1999.90;999.90;;;18.20;99.90;;;;;;5037722;28;20123;-81
2022/10/21 01:44:12;;;;;;;1999.90;999.90;;;18.30;99.90;;;;;;5040960;28;20111;-81
2022/10/21 01:46:55;;;;;;;1999.90;999.90;;;18.40;99.90;;;;;;5012839;28;20040;-83
2022/10/21 01:49:51;;;;;;;1999.90;999.90;;;18.50;99.90;;;;;;5035225;28;20028;-83
2022/10/21 01:52:17;;;;;;;1999.90;999.90;;;18.50;99.90;;;;;;5029825;28;20080;-83
2022/10/21 01:54:47;;;;;;;1999.90;999.90;;;18.70;99.90;;;;;;5033543;28;20057;-83
2022/10/21 01:57:17;;;;;;;1999.90;999.90;;;18.70;99.90;;;;;;5016164;28;20392;-84
2022/10/21 01:59:44;;;;;;;1999.90;999.90;;;18.70;99.90;;;;;;5031986;28;20036;-83
2022/10/21 02:02:11;;;;;;;1999.90;999.90;;;18.70;99.90;;;;;;5031835;28;20057;-84
2022/10/21 02:04:40;;;;;;;1999.90;999.90;;;18.70;99.90;;;;;;5037305;28;20025;-83
2022/10/21 02:07:07;;;;;;;1999.90;999.90;;;18.70;99.90;;;;;;5030518;28;20435;-83
2022/10/21 02:09:32;;;;;;;1999.90;999.90;;;18.60;99.90;;;;;;5009220;28;20377;-83
2022/10/21 02:12:01;;;;;;;1999.90;999.90;;;18.60;99.90;;;;;;5036303;28;20028;-83
2022/10/21 02:14:41;;;;;;;1999.90;999.90;;;18.50;99.90;;;;;;5035183;28;20401;-83
2022/10/21 02:17:10;;;;;;;1999.90;999.90;;;18.60;99.90;;;;;;5037071;28;20483;-83
2022/10/21 02:19:35;;;;;;;1999.90;999.90;;;18.60;99.90;;;;;;5010939;28;20459;-83
2022/10/21 02:22:03;;;;;;;1999.90;999.90;;;18.50;99.90;;;;;;5034622;28;20040;-83
2022/10/21 02:24:38;;;;;;;1999.90;999.90;;;18.60;99.90;;;;;;5037154;28;20098;-84
2022/10/21 02:27:04;;;;;;;1999.90;999.90;;;18.60;99.90;;;;;;5035502;28;20373;-83
2022/10/21 02:29:36;;;;;;;1999.90;999.90;;;18.60;99.90;;;;;;5037382;28;20025;-83
2022/10/21 02:32:11;;;;;;;1999.90;999.90;;;18.60;99.90;;;;;;5037815;28;20017;-82
2022/10/21 02:34:59;;;;;;;1999.90;999.90;;;18.60;99.90;;;;;;5038940;28;20032;-84
2022/10/21 02:37:53;;;;;;;1999.90;999.90;;;18.50;99.90;;;;;;5029813;28;20064;-84
2022/10/21 02:40:33;;;;;;;1999.90;999.90;;;18.60;99.90;;;;;;5034483;28;20052;-83
2022/10/21 02:43:05;;;;;;;1999.90;999.90;;;18.70;99.90;;;;;;5011616;28;20444;-83
2022/10/21 02:45:32;;;;;;;1999.90;999.90;;;18.80;99.90;;;;;;5043267;28;20025;-84
2022/10/21 02:47:58;;;;;;;1999.90;999.90;;;18.90;99.90;;;;;;5041972;28;20480;-84
2022/10/21 02:50:24;;;;;;;1999.90;999.90;;;19.00;99.90;;;;;;5014417;28;20108;-84
2022/10/21 02:52:49;;;;;;;1999.90;999.90;;;19.10;99.90;;;;;;5031961;28;20037;-84
2022/10/21 02:55:15;;;;;;;1999.90;999.90;;;19.10;99.90;;;;;;5026024;28;20549;-84
2022/10/21 02:57:41;;;;;;;1999.90;999.90;;;19.10;99.90;;;;;;5038216;28;20028;-84
2022/10/21 03:00:07;;;;;;;1999.90;999.90;;;19.00;99.90;;;;;;5029139;28;20049;-83
2022/10/21 03:02:33;;;;;;;1999.90;999.90;;;19.00;99.90;;;;;;5013388;28;20049;-83
2022/10/21 03:04:58;;;;;;;1999.90;999.90;;;19.00;99.90;;;;;;5031902;28;20075;-85
2022/10/21 03:07:24;;;;;;;1999.90;999.90;;;19.00;99.90;;;;;;5026792;28;20030;-84
2022/10/21 03:09:49;;;;;;;1999.90;999.90;;;19.00;99.90;;;;;;5027473;28;20028;-83
2022/10/21 03:12:15;;;;;;;1999.90;999.90;;;18.90;99.90;;;;;;5037748;28;20024;-84
2022/10/21 03:14:41;;;;;;;1999.90;999.90;;;18.90;99.90;;;;;;5018502;28;20036;-83
2022/10/21 03:17:06;;;;;;;1999.90;999.90;;;18.90;99.90;;;;;;5026841;28;20029;-84
2022/10/21 03:19:32;;;;;;;1999.90;999.90;;;18.80;99.90;;;;;;5032651;28;20043;-84
2022/10/21 03:21:58;;;;;;;1999.90;999.90;;;18.80;99.90;;;;;;5029167;28;20037;-84
2022/10/21 03:24:23;;;;;;;1999.90;999.90;;;18.70;99.90;;;;;;5040778;28;20399;-83
2022/10/21 03:26:49;;;;;;;1999.90;999.90;;;18.70;99.90;;;;;;5035082;28;20024;-83
2022/10/21 03:29:14;;;;;;;1999.90;999.90;;;18.60;99.90;;;;;;5039438;28;20018;-84
2022/10/21 03:31:40;;;;;;;1999.90;999.90;;;18.60;99.90;;;;;;5039052;28;20025;-83
2022/10/21 03:34:06;;;;;;;1999.90;999.90;;;18.50;99.90;;;;;;5031388;28;20033;-83
2022/10/21 03:36:31;;;;;;;1999.90;999.90;;;18.50;99.90;;;;;;5040253;28;20036;-83
2022/10/21 03:38:57;;;;;;;1999.90;999.90;;;18.40;99.90;;;;;;5033454;28;20040;-83
2022/10/21 03:41:22;;;;;;;1999.90;999.90;;;18.30;99.90;;;;;;5028414;28;20099;-83
2022/10/21 03:43:48;;;;;;;1999.90;999.90;;;18.30;99.90;;;;;;5007429;28;20493;-84
2022/10/21 03:46:14;;;;;;;1999.90;999.90;;;18.30;99.90;;;;;;5029226;28;20065;-83
2022/10/21 03:48:39;;;;;;;1999.90;999.90;;;18.30;99.90;;;;;;5008999;28;20025;-83
2022/10/21 03:51:05;;;;;;;1999.90;999.90;;;18.20;99.90;;;;;;5032693;28;20737;-83
2022/10/21 03:53:31;;;;;;;1999.90;999.90;;;18.20;99.90;;;;;;5029987;28;21489;-83
2022/10/21 03:55:56;;;;;;;1999.90;999.90;;;18.10;99.90;;;;;;5029636;28;20040;-84
2022/10/21 03:58:22;;;;;;;1999.90;999.90;;;18.10;99.90;;;;;;5013504;28;20083;-83
2022/10/21 04:00:51;;;;;;;1999.90;999.90;;;18.10;99.90;;;;;;5031597;28;20033;-83
2022/10/21 04:03:17;;;;;;;1999.90;999.90;;;18.00;99.90;;;;;;5029748;28;20048;-83
2022/10/21 04:05:43;;;;;;;1999.90;999.90;;;18.00;99.90;;;;;;5044456;28;20666;-83
2022/10/21 04:08:08;;;;;;;1999.90;999.90;;;17.90;99.90;;;;;;5034367;28;20535;-83
2022/10/21 04:10:34;;;;;;;1999.90;999.90;;;18.00;99.90;;;;;;5037484;28;20025;-83
2022/10/21 04:13:00;;;;;;;1999.90;999.90;;;17.90;99.90;;;;;;5031103;28;20377;-83
2022/10/21 04:15:25;;;;;;;1999.90;999.90;;;17.80;99.90;;;;;;5029105;28;20033;-84
2022/10/21 04:17:51;;;;;;;1999.90;999.90;;;17.80;99.90;;;;;;5014933;28;20029;-84
2022/10/21 04:20:17;;;;;;;1999.90;999.90;;;17.80;99.90;;;;;;5018002;28;20025;-83
2022/10/21 04:22:42;;;;;;;1999.90;999.90;;;17.80;99.90;;;;;;5040458;28;20495;-83
2022/10/21 04:25:08;;;;;;;1999.90;999.90;;;17.80;99.90;;;;;;5016329;28;20025;-83
2022/10/21 04:27:34;;;;;;;1999.90;999.90;;;17.80;99.90;;;;;;5044031;28;20068;-84
2022/10/21 04:29:59;;;;;;;1999.90;999.90;;;17.80;99.90;;;;;;5039377;28;20723;-83
2022/10/21 04:32:25;;;;;;;1999.90;999.90;;;17.80;99.90;;;;;;5030891;28;20091;-84
2022/10/21 04:34:51;;;;;;;1999.90;999.90;;;17.80;99.90;;;;;;5035164;28;20124;-83
2022/10/21 04:37:16;;;;;;;1999.90;999.90;;;17.80;99.90;;;;;;5051969;28;20143;-83
2022/10/21 04:39:42;;;;;;;1999.90;999.90;;;17.80;99.90;;;;;;5039746;28;20193;-83
2022/10/21 04:42:07;;;;;;;1999.90;999.90;;;17.80;99.90;;;;;;5047277;28;20017;-82
2022/10/21 04:44:33;;;;;;;1999.90;999.90;;;17.70;99.90;;;;;;5043710;28;20244;-83
2022/10/21 04:46:59;;;;;;;1999.90;999.90;;;17.70;99.90;;;;;;5041066;28;20026;-83
2022/10/21 04:49:24;;;;;;;1999.90;999.90;;;17.70;99.90;;;;;;5038638;28;20029;-83
2022/10/21 04:51:50;;;;;;;1999.90;999.90;;;17.60;99.90;;;;;;5030521;28;20057;-83
2022/10/21 04:54:16;;;;;;;1999.90;999.90;;;17.60;99.90;;;;;;5035196;28;20037;-83
2022/10/21 04:56:42;;;;;;;1999.90;999.90;;;17.70;99.90;;;;;;5041214;28;20025;-84
2022/10/21 04:59:08;;;;;;;1999.90;999.90;;;17.60;99.90;;;;;;5034141;28;20163;-83
2022/10/21 05:01:33;;;;;;;1999.90;999.90;;;17.60;99.90;;;;;;5034944;28;20093;-83
2022/10/21 05:03:59;;;;;;;1999.90;999.90;;;17.60;99.90;;;;;;5015739;28;20021;-83
2022/10/21 05:06:24;;;;;;;1999.90;999.90;;;17.50;99.90;;;;;;5035089;28;20057;-83
2022/10/21 05:08:50;;;;;;;1999.90;999.90;;;17.50;99.90;;;;;;5041367;28;20391;-83
2022/10/21 05:11:16;;;;;;;1999.90;999.90;;;17.40;99.90;;;;;;5039164;28;20520;-83
2022/10/21 05:13:41;;;;;;;1999.90;999.90;;;17.40;99.90;;;;;;5011031;28;20034;-83
2022/10/21 05:16:07;;;;;;;1999.90;999.90;;;17.40;99.90;;;;;;5034772;28;20393;-82
2022/10/21 05:18:33;;;;;;;1999.90;999.90;;;17.40;99.90;;;;;;5035998;28;20040;-83
2022/10/21 05:20:59;;;;;;;1999.90;999.90;;;17.50;99.90;;;;;;5033663;28;20737;-83
2022/10/21 05:23:25;;;;;;;1999.90;999.90;;;17.50;99.90;;;;;;5037958;28;20025;-83
2022/10/21 05:25:51;;;;;;;1999.90;999.90;;;17.60;99.90;;;;;;5013935;28;20305;-83
2022/10/21 05:28:17;;;;;;;1999.90;999.90;;;17.70;99.90;;;;;;5030751;28;20048;-83
2022/10/21 05:30:43;;;;;;;1999.90;999.90;;;17.70;99.90;;;;;;5037058;28;20028;-83
2022/10/21 05:33:09;;;;;;;1999.90;999.90;;;17.70;99.90;;;;;;5010520;28;20021;-83
2022/10/21 05:35:35;;;;;;;1999.90;999.90;;;17.80;99.90;;;;;;5010075;28;20041;-83
2022/10/21 05:38:01;;;;;;;1999.90;999.90;;;17.80;99.90;;;;;;5015143;28;20025;-83
2022/10/21 05:40:27;;;;;;;1999.90;999.90;;;17.90;99.90;;;;;;5031703;28;20632;-84
2022/10/21 05:42:52;;;;;;;1999.90;999.90;;;17.90;99.90;;;;;;5015909;28;20040;-83
2022/10/21 05:45:18;;;;;;;1999.90;999.90;;;17.90;99.90;;;;;;5014916;28;20032;-83
2022/10/21 05:47:44;;;;;;;1999.90;999.90;;;17.90;99.90;;;;;;5036039;28;20029;-83
2022/10/21 05:50:12;;;;;;;1999.90;999.90;;;17.90;99.90;;;;;;5040549;28;20021;-83
2022/10/21 05:52:39;;;;;;;1999.90;999.90;;;17.90;99.90;;;;;;5039089;28;20463;-83
2022/10/21 05:55:05;;;;;;;1999.90;999.90;;;17.90;99.90;;;;;;5037428;28;20610;-83
2022/10/21 05:57:36;;;;;;;1999.90;999.90;;;17.90;99.90;;;;;;5040099;28;20021;-83
2022/10/21 06:00:02;;;;;;;1999.90;999.90;;;17.90;99.90;;;;;;5032693;28;20036;-83
2022/10/21 06:02:28;;;;;;;1999.90;999.90;;;17.90;99.90;;;;;;5013601;28;20087;-83
2022/10/21 06:04:54;;;;;;;1999.90;999.90;;;17.90;99.90;;;;;;5033424;28;20615;-86
2022/10/21 06:07:19;;;;;;;1999.90;999.90;;;17.90;99.90;;;;;;5023612;28;20028;-83
2022/10/21 06:09:45;;;;;;;1999.90;999.90;;;17.90;99.90;;;;;;5030086;28;20604;-83
2022/10/21 06:12:11;;;;;;;1999.90;999.90;;;17.80;99.90;;;;;;5030740;28;20096;-81
2022/10/21 06:14:36;;;;;;;1999.90;999.90;;;17.80;99.90;;;;;;5030754;28;20029;-81
2022/10/21 06:17:05;;;;;;;1999.90;999.90;;;17.80;99.90;;;;;;5027500;28;20105;-81
2022/10/21 06:19:30;;;;;;;1999.90;999.90;;;17.90;99.90;;;;;;5027719;28;20021;-80
2022/10/21 06:21:57;;;;;;;1999.90;999.90;;;17.90;99.90;;;;;;5030106;28;20447;-81
2022/10/21 06:24:26;;;;;;;1999.90;999.90;;;18.00;99.90;;;;;;5036713;28;20693;-80
2022/10/21 06:26:52;;;;;;;1999.90;999.90;;;17.90;99.90;;;;;;5038839;28;20079;-80
2022/10/21 06:29:18;;;;;;;1999.90;999.90;;;18.00;99.90;;;;;;5007009;28;20479;-80
2022/10/21 06:31:44;;;;;;;1999.90;999.90;;;18.00;99.90;;;;;;5028333;28;20025;-80
2022/10/21 06:34:09;;;;;;;1999.90;999.90;;;18.00;99.90;;;;;;5008592;28;20571;-81
2022/10/21 06:36:37;;;;;;;1999.90;999.90;;;18.00;99.90;;;;;;5033679;28;20033;-81
2022/10/21 06:39:03;;;;;;;1999.90;999.90;;;18.00;99.90;;;;;;5033035;28;20075;-81
2022/10/21 06:41:29;;;;;;;1999.90;999.90;;;18.00;99.90;;;;;;5033546;28;20068;-82
2022/10/21 06:43:54;;;;;;;1999.90;999.90;;;18.00;99.90;;;;;;5031382;28;20065;-81
2022/10/21 06:46:20;;;;;;;1999.90;999.90;;;18.00;99.90;;;;;;5032748;28;20204;-81
2022/10/21 06:48:46;;;;;;;1999.90;999.90;;;17.90;99.90;;;;;;5034780;28;20082;-81
2022/10/21 06:51:15;;;;;;;1999.90;999.90;;;17.90;99.90;;;;;;5028082;28;20084;-81
2022/10/21 06:53:41;;;;;;;1999.90;999.90;;;17.90;99.90;;;;;;5032851;28;20960;-80
2022/10/21 06:56:09;;;;;;;1999.90;999.90;;;17.90;99.90;;;;;;5032477;28;20079;-80
2022/10/21 06:58:37;;;;;;;1999.90;999.90;;;18.00;99.90;;;;;;5031808;28;20036;-81
2022/10/21 07:01:20;;;;;;;1999.90;999.90;;;18.00;99.90;;;;;;5012797;28;20021;-77
2022/10/21 07:03:46;;;;;;;1999.90;999.90;;;18.10;99.90;;;;;;5025392;28;20546;-77
2022/10/21 07:06:12;;;;;;;1999.90;999.90;;;18.20;99.90;;;;;;5010402;28;20029;-77
2022/10/21 07:08:38;;;;;;;1999.90;999.90;;;18.20;99.90;;;;;;5007318;28;20045;-78
2022/10/21 07:11:05;;;;;;;1999.90;999.90;;;18.30;99.90;;;;;;5038184;28;20026;-77
2022/10/21 07:13:31;;;;;;;1999.90;999.90;;;18.30;99.90;;;;;;5010571;28;20140;-78
2022/10/21 07:15:59;;;;;;;1999.90;999.90;;;18.40;99.90;;;;;;5032967;28;20082;-78
2022/10/21 07:18:25;;;;;;;1999.90;999.90;;;18.40;99.90;;;;;;5033099;28;20021;-78
2022/10/21 07:20:51;;;;;;;1999.90;999.90;;;18.40;99.90;;;;;;5008293;28;20040;-78
2022/10/21 07:23:17;;;;;;;1999.90;999.90;;;18.40;99.90;;;;;;5030134;28;20368;-79
2022/10/21 07:25:42;;;;;;;1999.90;999.90;;;18.40;99.90;;;;;;5029110;28;21238;-77
2022/10/21 07:28:08;;;;;;;1999.90;999.90;;;18.40;99.90;;;;;;5010253;28;20025;-77
2022/10/21 07:30:42;;;;;;;1999.90;999.90;;;18.40;99.90;;;;;;5025441;28;20501;-77
2022/10/21 07:33:08;;;;;;;1999.90;999.90;;;18.40;99.90;;;;;;5033254;28;20041;-76
2022/10/21 07:35:34;;;;;;;1999.90;999.90;;;18.40;99.90;;;;;;5033648;28;20420;-77
2022/10/21 07:37:59;;;;;;;1999.90;999.90;;;18.40;99.90;;;;;;5035542;28;20036;-76
2022/10/21 07:40:27;;;;;;;1999.90;999.90;;;18.40;99.90;;;;;;5039618;28;20063;-76
2022/10/21 07:42:53;;;;;;;1999.90;999.90;;;18.50;99.90;;;;;;5027245;28;20029;-76
2022/10/21 07:45:19;;;;;;;1999.90;999.90;;;18.50;99.90;;;;;;5023978;28;20025;-76
2022/10/21 07:47:44;;;;;;;1999.90;999.90;;;18.50;99.90;;;;;;5014163;28;20028;-76
2022/10/21 07:50:10;;;;;;;1999.90;999.90;;;18.50;99.90;;;;;;5033515;28;20107;-78
2022/10/21 07:52:37;;;;;;;1999.90;999.90;;;18.50;99.90;;;;;;5036968;28;20080;-77
2022/10/21 07:55:03;;;;;;;1999.90;999.90;;;18.50;99.90;;;;;;5014867;28;20571;-77
2022/10/21 07:57:29;;;;;;;1999.90;999.90;;;18.50;99.90;;;;;;5043514;28;20567;-76
2022/10/21 07:59:54;;;;;;;1999.90;999.90;;;18.50;99.90;;;;;;5041832;28;20028;-77
2022/10/21 08:02:20;;;;;;;1999.90;999.90;;;18.60;99.90;;;;;;5035100;28;20026;-77
2022/10/21 08:04:45;;;;;;;1999.90;999.90;;;18.60;99.90;;;;;;5011869;28;20128;-77
2022/10/21 08:07:11;;;;;;;1999.90;999.90;;;18.60;99.90;;;;;;5035703;28;20088;-77
2022/10/21 08:09:37;;;;;;;1999.90;999.90;;;18.60;99.90;;;;;;5031916;28;20034;-78
2022/10/21 08:12:02;;;;;;;1999.90;999.90;;;18.70;99.90;;;;;;5034831;28;20017;-78
2022/10/21 08:14:28;;;;;;;1999.90;999.90;;;18.70;99.90;;;;;;5035312;28;20025;-79
2022/10/21 08:16:54;;;;;;;1999.90;999.90;;;18.70;99.90;;;;;;5030393;28;20471;-80
2022/10/21 08:19:26;;;;;;;1999.90;999.90;;;18.70;99.90;;;;;;5038012;28;20021;-79
2022/10/21 08:21:51;;;;;;;1999.90;999.90;;;18.80;99.90;;;;;;5038931;28;20108;-78
2022/10/21 08:24:17;;;;;;;1999.90;999.90;;;18.80;99.90;;;;;;5011302;28;20093;-76
2022/10/21 08:26:42;;;;;;;1999.90;999.90;;;18.80;99.90;;;;;;5033708;28;20026;-76
2022/10/21 08:29:08;;;;;;;1999.90;999.90;;;18.90;99.90;;;;;;5015454;28;20052;-77
2022/10/21 08:31:34;;;;;;;1999.90;999.90;;;18.90;99.90;;;;;;5034389;28;20029;-77
2022/10/21 08:33:59;;;;;;;1999.90;999.90;;;18.90;99.90;;;;;;5014762;28;20783;-78
2022/10/21 08:36:26;;;;;;;1999.90;999.90;;;18.90;99.90;;;;;;5034171;28;20029;-78
2022/10/21 08:38:52;;;;;;;1999.90;999.90;;;18.90;99.90;;;;;;5032575;28;20040;-77
2022/10/21 08:41:30;;;;;;;1999.90;999.90;;;18.90;99.90;;;;;;5032217;28;20041;-77
2022/10/21 08:44:01;;;;;;;1999.90;999.90;;;18.90;99.90;;;;;;5037540;28;20029;-77
2022/10/21 08:46:34;;;;;;;1999.90;999.90;;;19.00;99.90;;;;;;5009117;28;20033;-77
2022/10/21 08:49:15;;;;;;;1999.90;999.90;;;19.00;99.90;;;;;;5031990;28;20021;-77
2022/10/21 08:51:45;;;;;;;1999.90;999.90;;;19.10;99.90;;;;;;5012237;28;20061;-77
2022/10/21 08:54:26;;;;;;;1999.90;999.90;;;19.10;99.90;;;;;;5007885;28;20107;-76
2022/10/21 08:56:54;;;;;;;1999.90;999.90;;;19.20;99.90;;;;;;5039568;28;20057;-80
2022/10/21 08:59:25;;;;;;;1999.90;999.90;;;19.30;99.90;;;;;;5035304;28;20025;-82
2022/10/21 09:02:04;;;;;;;1999.90;999.90;;;19.30;99.90;;;;;;5040695;28;20016;-82
2022/10/21 09:04:30;;;;;;;1999.90;999.90;;;19.30;99.90;;;;;;5035132;28;20399;-82
2022/10/21 09:07:04;;;;;;;1999.90;999.90;;;19.30;99.90;;;;;;5047154;28;20029;-81
2022/10/21 09:09:41;;;;;;;1999.90;999.90;;;19.40;99.90;;;;;;5036410;28;20123;-82
2022/10/21 09:12:28;;;;;;;1999.90;999.90;;;19.50;99.90;;;;;;5031174;28;20044;-81
2022/10/21 09:15:07;;;;;;;1999.90;999.90;;;19.50;99.90;;;;;;5032621;28;20030;-80
2022/10/21 09:17:38;;;;;;;1999.90;999.90;;;19.50;99.90;;;;;;5030948;28;20503;-77
2022/10/21 09:20:40;;;;;;;1999.90;999.90;;;19.50;99.90;;;;;;5020403;28;20031;-76
2022/10/21 09:23:43;;;;;;;1999.90;999.90;;;19.60;99.90;;;;;;5045378;28;20024;-76
2022/10/21 09:26:35;;;;;;;1999.90;999.90;;;19.70;99.90;;;;;;5039649;28;20101;-79
2022/10/21 09:29:24;;;;;;;1999.90;999.90;;;19.70;99.90;;;;;;5031683;28;20029;-77
2022/10/21 09:31:50;;;;;;;1999.90;999.90;;;19.60;99.90;;;;;;5028669;28;20033;-76
2022/10/21 09:34:25;;;;;;;1999.90;999.90;;;19.70;99.90;;;;;;5030043;28;20018;-77
2022/10/21 09:36:51;;;;;;;1999.90;999.90;;;19.80;99.90;;;;;;5036735;28;20520;-76
2022/10/21 09:39:28;;;;;;;1999.90;999.90;;;19.60;99.90;;;;;;5030762;28;20025;-77
2022/10/21 09:41:57;;;;;;;1999.90;999.90;;;19.80;99.90;;;;;;5010897;28;20490;-76
2022/10/21 09:44:23;;;;;;;1999.90;999.90;;;19.70;99.90;;;;;;5026964;28;20392;-76
2022/10/21 09:46:51;;;;;;;1999.90;999.90;;;19.70;99.90;;;;;;5021336;28;20025;-77
2022/10/21 09:49:30;;;;;;;1999.90;999.90;;;19.70;99.90;;;;;;5030094;28;20493;-76
2022/10/21 09:52:02;;;;;;;1999.90;999.90;;;19.60;99.90;;;;;;5015875;28;20060;-76
2022/10/21 09:54:32;;;;;;;1999.90;999.90;;;19.80;99.90;;;;;;5013912;28;20033;-76
2022/10/21 09:57:12;;;;;;;1999.90;999.90;;;20.00;99.90;;;;;;5011552;28;20030;-78
2022/10/21 09:59:55;;;;;;;1999.90;999.90;;;19.90;99.90;;;;;;5013341;28;20115;-77
2022/10/21 10:02:51;;;;;;;1999.90;999.90;;;19.90;99.90;;;;;;5025793;28;20129;-77
2022/10/21 10:05:46;;;;;;;1999.90;999.90;;;19.80;99.90;;;;;;5029000;28;20519;-77
2022/10/21 10:08:30;;;;;;;1999.90;999.90;;;19.80;99.90;;;;;;5041585;28;20013;-77
2022/10/21 10:11:01;;;;;;;1999.90;999.90;;;19.90;99.90;;;;;;5037919;28;20092;-77
2022/10/21 10:13:30;;;;;;;1999.90;999.90;;;20.00;99.90;;;;;;5030832;28;20033;-77
2022/10/21 10:16:10;;;;;;;1999.90;999.90;;;19.90;99.90;;;;;;5031455;28;20397;-77
2022/10/21 10:18:36;;;;;;;1999.90;999.90;;;19.80;99.90;;;;;;5017290;28;20025;-77
2022/10/21 10:21:16;;;;;;;1999.90;999.90;;;19.80;99.90;;;;;;5042797;28;20032;-77
2022/10/21 10:23:43;;;;;;;1999.90;999.90;;;19.90;99.90;;;;;;5048515;28;20025;-77
2022/10/21 10:26:09;;;;;;;1999.90;999.90;;;19.90;99.90;;;;;;5009759;28;20033;-79
2022/10/21 10:28:36;;;;;;;1999.90;999.90;;;19.90;99.90;;;;;;5013631;28;20029;-79
2022/10/21 10:31:02;;;;;;;1999.90;999.90;;;20.00;99.90;;;;;;5040804;28;20028;-80
2022/10/21 10:33:34;;;;;;;1999.90;999.90;;;20.00;99.90;;;;;;5043588;28;20033;-80
2022/10/21 10:36:02;;;;;;;1999.90;999.90;;;19.90;99.90;;;;;;5022451;28;20036;-78
2022/10/21 10:38:31;;;;;;;1999.90;999.90;;;20.00;99.90;;;;;;5033135;28;20026;-78
2022/10/21 10:41:11;;;;;;;1999.90;999.90;;;20.00;99.90;;;;;;5030938;28;20025;-78
2022/10/21 10:43:45;;;;;;;1999.90;999.90;;;20.00;99.90;;;;;;5010105;28;20033;-79
2022/10/21 10:46:23;;;;;;;1999.90;999.90;;;20.00;99.90;;;;;;5041499;28;20025;-79
2022/10/21 10:48:51;;;;;;;1999.90;999.90;;;20.00;99.90;;;;;;5039117;28;20017;-78
2022/10/21 10:51:31;;;;;;;1999.90;999.90;;;20.00;99.90;;;;;;5032613;28;20500;-80
2022/10/21 10:54:01;;;;;;;1999.90;999.90;;;20.10;99.90;;;;;;5033770;28;20502;-78
2022/10/21 10:56:41;;;;;;;1999.90;999.90;;;20.30;99.90;;;;;;5012100;28;20377;-79
2022/10/21 10:59:29;;;;;;;1999.90;999.90;;;20.30;99.90;;;;;;5043985;28;20025;-77
2022/10/21 11:02:26;;;;;;;1999.90;999.90;;;20.40;99.90;;;;;;5027349;28;20040;-77
2022/10/21 11:05:07;;;;;;;1999.90;999.90;;;20.40;99.90;;;;;;5029967;28;20025;-77
2022/10/21 11:07:42;;;;;;;1999.90;999.90;;;20.40;99.90;;;;;;5041839;28;20029;-77
2022/10/21 11:10:19;;;;;;;1999.90;999.90;;;20.40;99.90;;;;;;5032393;28;20017;-78
2022/10/21 11:12:44;;;;;;;1999.90;999.90;;;20.50;99.90;;;;;;5034832;28;20087;-78
2022/10/21 11:15:14;;;;;;;1999.90;999.90;;;20.60;99.90;;;;;;5033493;28;20097;-78
2022/10/21 11:17:44;;;;;;;1999.90;999.90;;;20.50;99.90;;;;;;5026093;28;20423;-78
2022/10/21 11:20:19;;;;;;;1999.90;999.90;;;20.50;99.90;;;;;;5032711;28;20512;-78
2022/10/21 11:23:03;;;;;;;1999.90;999.90;;;20.70;99.90;;;;;;5026380;28;20040;-78
2022/10/21 11:25:41;;;;;;;1999.90;999.90;;;20.70;99.90;;;;;;5025946;28;20110;-78
2022/10/21 11:28:27;;;;;;;1999.90;999.90;;;20.70;99.90;;;;;;5028355;28;20024;-79
2022/10/21 11:31:08;;;;;;;1999.90;999.90;;;20.60;99.90;;;;;;5026316;28;20032;-77
2022/10/21 11:34:06;;;;;;;1999.90;999.90;;;20.60;99.90;;;;;;5028731;28;20625;-78
2022/10/21 11:36:42;;;;;;;1999.90;999.90;;;20.40;99.90;;;;;;5009927;28;20060;-79
2022/10/21 11:39:26;;;;;;;1999.90;999.90;;;20.30;99.90;;;;;;5026664;28;20045;-77
2022/10/21 11:42:22;;;;;;;1999.90;999.90;;;20.30;99.90;;;;;;5033211;28;20035;-78
2022/10/21 11:45:17;;;;;;;1999.90;999.90;;;20.30;99.90;;;;;;5030230;28;20128;-78
2022/10/21 11:47:49;;;;;;;1999.90;999.90;;;20.40;99.90;;;;;;5026986;28;20018;-78
2022/10/21 11:50:42;;;;;;;1999.90;999.90;;;20.30;99.90;;;;;;5032985;28;20029;-78
2022/10/21 11:53:22;;;;;;;1999.90;999.90;;;20.30;99.90;;;;;;5031794;28;20492;-78
2022/10/21 11:55:57;;;;;;;1999.90;999.90;;;20.30;99.90;;;;;;5025102;28;20053;-80
2022/10/21 11:58:29;;;;;;;1999.90;999.90;;;20.40;99.90;;;;;;5029142;28;20033;-79
2022/10/21 12:01:11;;;;;;;1999.90;999.90;;;20.30;99.90;;;;;;5002329;28;20438;-79
2022/10/21 12:04:06;;;;;;;1999.90;999.90;;;20.40;99.90;;;;;;5025280;28;20036;-79
2022/10/21 12:06:33;;;;;;;1999.90;999.90;;;20.40;99.90;;;;;;5025736;28;20405;-79
2022/10/21 12:09:09;;;;;;;1999.90;999.90;;;20.40;99.90;;;;;;5036581;28;20112;-79
2022/10/21 12:11:57;;;;;;;1999.90;999.90;;;20.40;99.90;;;;;;5030026;28;20021;-79
2022/10/21 12:14:33;;;;;;;1999.90;999.90;;;20.50;99.90;;;;;;5027924;28;20084;-80